createdAt,value
2023-03-11T00:00:22.765Z,99063.75
2023-03-11T00:02:51.636Z,99060.13
2023-03-11T00:05:25.156Z,99068.28
2023-03-11T00:07:52.450Z,99061.31
2023-03-11T00:10:30.903Z,99071.13
2023-03-11T00:13:01.786Z,99076.53
2023-03-11T00:15:30.055Z,99060.78
2023-03-11T00:17:58.205Z,99063.78
2023-03-11T00:20:31.116Z,99052.56
2023-03-11T00:22:58.761Z,99058.28
2023-03-11T00:25:29.553Z,99047.66
2023-03-11T00:27:57.058Z,99050.59
2023-03-11T00:30:25.239Z,99050.81
2023-03-11T00:32:55.101Z,99042.22
2023-03-11T00:35:28.860Z,99042.94
2023-03-11T00:37:59.345Z,99030.34
2023-03-11T00:40:28.457Z,99031.13
2023-03-11T00:42:55.970Z,99025.59
2023-03-11T00:45:23.454Z,99020.69
2023-03-11T00:47:51.861Z,99028.66
2023-03-11T00:50:28.583Z,99015.75
2023-03-11T00:52:56.376Z,99011.38
2023-03-11T00:55:26.959Z,99007.31
2023-03-11T00:58:00.238Z,98999.81
2023-03-11T01:00:31.901Z,98999.59
2023-03-11T01:03:00.362Z,99001.50
2023-03-11T01:05:31.042Z,98995.19
2023-03-11T01:07:59.061Z,98978.75
2023-03-11T01:10:28.066Z,98979.53
2023-03-11T01:12:55.255Z,98977.00
2023-03-11T01:15:32.827Z,98971.78
2023-03-11T01:18:00.361Z,98965.25
2023-03-11T01:20:28.022Z,98954.88
2023-03-11T01:22:55.266Z,98956.34
2023-03-11T01:25:24.470Z,98950.19
2023-03-11T01:27:51.906Z,98953.38
2023-03-11T01:30:22.359Z,98952.25
2023-03-11T01:32:52.626Z,98953.94
2023-03-11T01:35:22.708Z,98953.28
2023-03-11T01:37:50.163Z,98953.41
2023-03-11T01:40:29.975Z,98948.94
2023-03-11T01:43:00.617Z,98948.88
2023-03-11T01:46:02.739Z,98943.03
2023-03-11T01:48:31.420Z,98947.31
2023-03-11T01:50:59.372Z,98947.53
2023-03-11T01:53:26.866Z,98937.22
2023-03-11T01:55:54.821Z,98935.22
2023-03-11T01:58:26.833Z,98933.25
2023-03-11T02:00:56.912Z,98936.50
2023-03-11T02:03:30.066Z,98939.53
2023-03-11T02:06:01.429Z,98929.78
2023-03-11T02:08:30.190Z,98930.16
2023-03-11T02:10:58.073Z,98925.22
2023-03-11T02:13:25.345Z,98916.09
2023-03-11T02:15:52.768Z,98917.34
2023-03-11T02:18:21.296Z,98918.81
2023-03-11T02:21:10.328Z,98913.34
2023-03-11T02:24:03.233Z,98917.16
2023-03-11T02:26:56.726Z,98914.09
2023-03-11T02:29:26.925Z,98899.88
2023-03-11T02:31:56.209Z,98899.72
2023-03-11T02:34:28.181Z,98902.47
2023-03-11T02:36:55.548Z,98892.00
2023-03-11T02:39:33.964Z,98902.63
2023-03-11T02:42:12.454Z,98883.97
2023-03-11T02:44:44.353Z,98883.91
2023-03-11T02:47:11.973Z,98884.22
2023-03-11T02:49:39.622Z,98875.75
2023-03-11T02:52:07.054Z,98868.72
2023-03-11T02:54:34.172Z,98866.06
2023-03-11T02:57:01.236Z,98862.03
2023-03-11T02:59:28.415Z,98857.25
2023-03-11T03:01:56.411Z,98860.84
2023-03-11T03:04:23.548Z,98855.38
2023-03-11T03:06:50.714Z,98863.75
2023-03-11T03:09:18.114Z,98858.97
2023-03-11T03:11:45.271Z,98857.53
2023-03-11T03:14:12.402Z,98850.75
2023-03-11T03:16:39.682Z,98849.56
2023-03-11T03:19:06.797Z,98850.44
2023-03-11T03:21:33.915Z,98843.75
2023-03-11T03:24:01.489Z,98840.09
2023-03-11T03:26:28.621Z,98834.28
2023-03-11T03:28:56.664Z,98822.59
2023-03-11T03:31:23.907Z,98830.19
2023-03-11T03:33:51.340Z,98825.06
2023-03-11T03:36:18.565Z,98825.94
2023-03-11T03:38:59.013Z,98829.84
2023-03-11T03:41:30.820Z,98822.31
2023-03-11T03:43:58.507Z,98824.53
2023-03-11T03:46:26.279Z,98819.81
2023-03-11T03:48:57.378Z,98820.00
2023-03-11T03:51:25.157Z,98808.47
2023-03-11T03:54:04.827Z,98815.94
2023-03-11T03:56:32.034Z,98825.28
2023-03-11T03:59:00.291Z,98819.91
2023-03-11T04:01:33.535Z,98817.13
2023-03-11T04:04:00.913Z,98816.66
2023-03-11T04:06:28.494Z,98799.78
2023-03-11T04:09:00.669Z,98802.31
2023-03-11T04:11:32.591Z,98800.19
2023-03-11T04:14:02.593Z,98791.91
2023-03-11T04:16:31.846Z,98787.69
2023-03-11T04:19:05.931Z,98791.34
2023-03-11T04:21:34.626Z,98788.91
2023-03-11T04:24:02.252Z,98778.50
2023-03-11T04:26:33.774Z,98771.81
2023-03-11T04:29:01.734Z,98762.28
2023-03-11T04:31:32.030Z,98769.16
2023-03-11T04:34:01.803Z,98762.47
2023-03-11T04:36:29.552Z,98766.19
2023-03-11T04:38:57.601Z,98757.41
2023-03-11T04:41:26.180Z,98751.66
2023-03-11T04:43:53.898Z,98752.50
2023-03-11T04:46:21.119Z,98750.78
2023-03-11T04:48:49.001Z,98758.66
2023-03-11T04:51:16.546Z,98764.94
2023-03-11T04:53:43.843Z,98767.84
2023-03-11T04:56:12.374Z,98765.94
2023-03-11T04:58:40.188Z,98759.19
2023-03-11T05:01:07.819Z,98761.34
2023-03-11T05:03:35.257Z,98749.19
2023-03-11T05:06:02.526Z,98754.34
2023-03-11T05:08:30.407Z,98760.97
2023-03-11T05:10:58.031Z,98754.34
2023-03-11T05:13:25.326Z,98748.13
2023-03-11T05:15:53.354Z,98748.78
2023-03-11T05:18:21.084Z,98739.03
2023-03-11T05:20:49.264Z,98735.63
2023-03-11T05:23:17.923Z,98739.97
2023-03-11T05:25:45.788Z,98739.88
2023-03-11T05:28:13.118Z,98745.31
2023-03-11T05:30:46.338Z,98739.56
2023-03-11T05:33:13.803Z,98747.56
2023-03-11T05:35:41.056Z,98746.25
2023-03-11T05:38:08.218Z,98746.97
2023-03-11T05:40:35.657Z,98753.69
2023-03-11T05:43:02.901Z,98745.50
2023-03-11T05:45:33.845Z,98747.34
2023-03-11T05:48:02.299Z,98751.63
2023-03-11T05:50:30.326Z,98747.78
2023-03-11T05:52:57.812Z,98745.72
2023-03-11T05:55:29.373Z,98738.97
2023-03-11T05:57:56.561Z,98743.94
2023-03-11T06:00:23.994Z,98755.16
2023-03-11T06:02:53.214Z,98756.06
2023-03-11T06:05:20.531Z,98746.56
2023-03-11T06:07:49.709Z,98749.25
2023-03-11T06:10:17.501Z,98747.19
2023-03-11T06:12:45.848Z,98738.75
2023-03-11T06:15:24.181Z,98740.03
2023-03-11T06:17:52.697Z,98726.28
2023-03-11T06:20:20.005Z,98728.78
2023-03-11T06:22:50.532Z,98724.41
2023-03-11T06:25:18.615Z,98722.09
2023-03-11T06:27:52.520Z,98721.16
2023-03-11T06:30:21.418Z,98710.59
2023-03-11T06:32:56.318Z,98715.28
2023-03-11T06:35:23.620Z,98702.63
2023-03-11T06:37:50.712Z,98708.97
2023-03-11T06:40:18.812Z,98718.00
2023-03-11T06:42:49.095Z,98718.16
2023-03-11T06:45:20.482Z,98721.38
2023-03-11T06:47:48.960Z,98707.00
2023-03-11T06:50:16.713Z,98702.03
2023-03-11T06:52:43.871Z,98713.16
2023-03-11T06:55:11.264Z,98702.59
2023-03-11T06:57:38.344Z,98697.00
2023-03-11T07:00:12.607Z,98700.59
2023-03-11T07:02:42.782Z,98691.81
2023-03-11T07:05:10.756Z,98700.91
2023-03-11T07:07:37.889Z,98699.59
2023-03-11T07:10:05.880Z,98697.59
2023-03-11T07:12:33.014Z,98684.13
2023-03-11T07:15:00.606Z,98684.53
2023-03-11T07:17:29.518Z,98686.53
2023-03-11T07:19:56.806Z,98676.53
2023-03-11T07:22:23.998Z,98679.22
2023-03-11T07:24:51.134Z,98670.28
2023-03-11T07:27:18.334Z,98672.50
2023-03-11T07:29:45.518Z,98654.28
2023-03-11T07:32:12.722Z,98659.19
2023-03-11T07:34:39.803Z,98648.72
2023-03-11T07:37:06.934Z,98629.06
2023-03-11T07:39:34.061Z,98632.31
2023-03-11T07:42:01.121Z,98632.88
2023-03-11T07:44:35.053Z,98625.34
2023-03-11T07:47:04.069Z,98627.28
2023-03-11T07:49:31.570Z,98617.34
2023-03-11T07:51:58.688Z,98615.78
2023-03-11T07:54:25.795Z,98614.25
2023-03-11T07:56:52.902Z,98607.22
2023-03-11T07:59:20.020Z,98617.50
2023-03-11T08:01:47.546Z,98609.59
2023-03-11T08:04:17.218Z,98594.81
2023-03-11T08:06:46.769Z,98586.84
2023-03-11T08:09:14.176Z,98587.19
2023-03-11T08:11:41.788Z,98580.72
2023-03-11T08:14:09.090Z,98593.34
2023-03-11T08:16:36.229Z,98584.66
2023-03-11T08:19:03.701Z,98578.09
2023-03-11T08:21:32.461Z,98577.63
2023-03-11T08:24:02.060Z,98582.59
2023-03-11T08:26:29.349Z,98585.69
2023-03-11T08:28:57.998Z,98595.69
2023-03-11T08:31:28.821Z,98582.38
2023-03-11T08:34:01.998Z,98569.16
2023-03-11T08:36:29.846Z,98578.47
2023-03-11T08:38:57.235Z,98569.84
2023-03-11T08:41:24.494Z,98565.03
2023-03-11T08:43:52.425Z,98573.53
2023-03-11T08:46:31.276Z,98556.75
2023-03-11T08:49:01.197Z,98568.34
2023-03-11T08:51:30.101Z,98564.31
2023-03-11T08:53:57.190Z,98566.69
2023-03-11T08:56:24.558Z,98557.75
2023-03-11T08:58:52.394Z,98561.75
2023-03-11T09:01:20.492Z,98557.00
2023-03-11T09:03:47.966Z,98540.75
2023-03-11T09:06:16.805Z,98552.22
2023-03-11T09:08:45.490Z,98547.94
2023-03-11T09:11:13.765Z,98544.50
2023-03-11T09:13:42.439Z,98541.91
2023-03-11T09:16:13.675Z,98538.44
2023-03-11T09:18:40.807Z,98527.66
2023-03-11T09:21:08.585Z,98556.38
2023-03-11T09:23:35.703Z,98567.78
2023-03-11T09:26:02.801Z,98572.72
2023-03-11T09:28:29.832Z,98572.44
2023-03-11T09:31:00.208Z,98582.03
2023-03-11T09:33:27.699Z,98588.31
2023-03-11T09:35:54.898Z,98596.88
2023-03-11T09:38:22.119Z,98596.09
2023-03-11T09:41:02.763Z,98608.28
2023-03-11T09:43:52.154Z,98596.94
2023-03-11T09:46:34.958Z,98592.09
2023-03-11T09:49:17.041Z,98602.75
2023-03-11T09:51:48.989Z,98597.03
2023-03-11T09:54:16.291Z,98590.13
2023-03-11T09:56:44.614Z,98594.72
2023-03-11T09:59:24.211Z,98594.16
2023-03-11T10:01:51.941Z,98600.97
2023-03-11T10:04:40.109Z,98592.94
2023-03-11T10:07:14.758Z,98587.00
2023-03-11T10:09:57.116Z,98586.56
2023-03-11T10:12:38.467Z,98597.72
2023-03-11T10:15:23.986Z,98582.25
2023-03-11T10:18:09.476Z,98590.13
2023-03-11T10:20:39.138Z,98595.09
2023-03-11T10:23:12.131Z,98595.47
2023-03-11T10:25:57.141Z,98573.97
2023-03-11T10:28:37.368Z,98544.75
2023-03-11T10:31:23.186Z,98537.91
2023-03-11T10:34:17.099Z,98549.88
2023-03-11T10:37:04.077Z,98542.84
2023-03-11T10:39:33.685Z,98540.56
2023-03-11T10:42:02.971Z,98541.09
2023-03-11T10:44:32.509Z,98546.19
2023-03-11T10:47:00.117Z,98551.84
2023-03-11T10:49:27.455Z,98554.47
2023-03-11T10:51:56.055Z,98545.13
2023-03-11T10:54:30.892Z,98541.00
2023-03-11T10:57:03.744Z,98530.34
2023-03-11T10:59:32.075Z,98524.78
2023-03-11T11:02:18.610Z,98519.78
2023-03-11T11:04:46.083Z,98509.66
2023-03-11T11:07:32.517Z,98501.59
2023-03-11T11:10:28.949Z,98491.50
2023-03-11T11:13:00.912Z,98487.63
2023-03-11T11:15:37.322Z,98494.84
2023-03-11T11:18:18.351Z,98498.25
2023-03-11T11:21:02.598Z,98484.69
2023-03-11T11:23:39.735Z,98480.19
2023-03-11T11:26:16.251Z,98470.06
2023-03-11T11:28:43.540Z,98477.69
2023-03-11T11:31:25.545Z,98482.34
2023-03-11T11:33:54.990Z,98484.25
2023-03-11T11:36:32.276Z,98479.88
2023-03-11T11:39:05.109Z,98475.47
2023-03-11T11:41:35.642Z,98478.19
2023-03-11T11:44:07.312Z,98474.00
2023-03-11T11:46:51.511Z,98472.75
2023-03-11T11:49:31.943Z,98482.34
2023-03-11T11:52:16.632Z,98489.38
2023-03-11T11:54:49.336Z,98491.41
2023-03-11T11:57:18.996Z,98485.22
2023-03-11T11:59:46.841Z,98491.63
2023-03-11T12:02:18.354Z,98485.56
2023-03-11T12:05:06.356Z,98489.06
2023-03-11T12:07:39.920Z,98487.56
2023-03-11T12:10:33.987Z,98487.25
2023-03-11T12:13:16.227Z,98492.88
2023-03-11T12:15:52.517Z,98491.91
2023-03-11T12:18:25.858Z,98493.22
2023-03-11T12:20:57.091Z,98486.19
2023-03-11T12:23:55.035Z,98484.47
2023-03-11T12:26:28.529Z,98497.19
2023-03-11T12:29:08.072Z,98495.56
2023-03-11T12:31:39.583Z,98494.94
2023-03-11T12:34:12.295Z,98496.09
2023-03-11T12:36:44.964Z,98492.72
2023-03-11T12:39:28.897Z,98492.78
2023-03-11T12:42:11.188Z,98487.06
2023-03-11T12:44:40.136Z,98485.56
2023-03-11T12:47:13.309Z,98482.75
2023-03-11T12:49:40.813Z,98485.63
2023-03-11T12:52:13.969Z,98480.44
2023-03-11T12:55:07.444Z,98483.88
2023-03-11T12:57:44.689Z,98481.47
2023-03-11T13:00:30.693Z,98477.56
2023-03-11T13:03:38.978Z,98476.69
2023-03-11T13:06:19.574Z,98484.25
2023-03-11T13:08:52.357Z,98485.56
2023-03-11T13:11:34.518Z,98482.34
2023-03-11T13:14:34.733Z,98474.28
2023-03-11T13:17:25.843Z,98481.94
2023-03-11T13:19:57.747Z,98482.25
2023-03-11T13:22:42.633Z,98487.25
2023-03-11T13:25:35.348Z,98481.22
2023-03-11T13:28:20.358Z,98486.81
2023-03-11T13:31:06.356Z,98484.91
2023-03-11T13:33:52.785Z,98488.09
2023-03-11T13:36:49.137Z,98480.63
2023-03-11T13:39:43.303Z,98485.16
2023-03-11T13:42:54.513Z,98477.44
2023-03-11T13:45:35.958Z,98477.25
2023-03-11T13:48:31.174Z,98477.97
2023-03-11T13:51:07.867Z,98480.38
2023-03-11T13:53:42.564Z,98477.81
2023-03-11T13:56:27.404Z,98474.31
2023-03-11T13:58:54.963Z,98471.16
2023-03-11T14:01:22.085Z,98474.19
2023-03-11T14:03:49.287Z,98480.97
2023-03-11T14:06:20.061Z,98482.81
2023-03-11T14:08:55.379Z,98486.63
2023-03-11T14:11:29.247Z,98482.44
2023-03-11T14:13:56.624Z,98486.31
2023-03-11T14:16:34.122Z,98485.47
2023-03-11T14:19:04.582Z,98490.22
2023-03-11T14:21:34.250Z,98482.44
2023-03-11T14:24:03.876Z,98491.97
2023-03-11T14:26:35.180Z,98487.31
2023-03-11T14:29:09.000Z,98495.69
2023-03-11T14:31:38.683Z,98493.09
2023-03-11T14:34:11.395Z,98478.53
2023-03-11T14:36:48.664Z,98484.22
2023-03-11T14:39:33.342Z,98481.47
2023-03-11T14:42:13.801Z,98471.56
2023-03-11T14:44:43.699Z,98470.97
2023-03-11T14:47:16.435Z,98464.25
2023-03-11T14:49:45.159Z,98474.69
2023-03-11T14:52:19.793Z,98475.47
2023-03-11T14:54:49.877Z,98479.59
2023-03-11T14:57:24.729Z,98490.66
2023-03-11T14:59:53.607Z,98488.72
2023-03-11T15:02:39.068Z,98495.97
2023-03-11T15:05:18.478Z,98495.44
2023-03-11T15:07:46.783Z,98490.19
2023-03-11T15:10:14.312Z,98491.38
2023-03-11T15:12:43.830Z,98509.22
2023-03-11T15:15:24.512Z,98511.69
2023-03-11T15:17:57.659Z,98509.59
2023-03-11T15:20:37.135Z,98517.28
2023-03-11T15:23:06.548Z,98518.25
2023-03-11T15:25:37.478Z,98527.06
2023-03-11T15:28:25.359Z,98524.97
2023-03-11T15:31:31.269Z,98546.75
2023-03-11T15:34:19.436Z,98537.44
2023-03-11T15:36:49.455Z,98546.91
2023-03-11T15:39:33.135Z,98549.25
2023-03-11T15:42:02.264Z,98560.47
2023-03-11T15:44:36.488Z,98562.06
2023-03-11T15:47:04.516Z,98568.53
2023-03-11T15:49:31.968Z,98576.91
2023-03-11T15:52:02.589Z,98574.28
2023-03-11T15:54:29.971Z,98579.28
2023-03-11T15:57:01.187Z,98582.84
2023-03-11T15:59:30.157Z,98579.44
2023-03-11T16:01:58.432Z,98589.88
2023-03-11T16:04:25.822Z,98585.03
2023-03-11T16:07:06.971Z,98588.72
2023-03-11T16:09:35.349Z,98592.94
2023-03-11T16:12:02.967Z,98592.56
2023-03-11T16:14:30.037Z,98600.50
2023-03-11T16:16:57.044Z,98613.69
2023-03-11T16:19:24.064Z,98617.00
2023-03-11T16:21:51.216Z,98616.97
2023-03-11T16:24:24.228Z,98624.75
2023-03-11T16:26:52.861Z,98625.13
2023-03-11T16:29:20.763Z,98642.91
2023-03-11T16:31:49.307Z,98641.66
2023-03-11T16:34:16.313Z,98643.91
2023-03-11T16:36:43.387Z,98650.72
2023-03-11T16:39:10.465Z,98650.91
2023-03-11T16:41:44.895Z,98653.22
2023-03-11T16:44:12.222Z,98655.88
2023-03-11T16:46:39.691Z,98663.19
2023-03-11T16:49:06.921Z,98658.75
2023-03-11T16:51:34.253Z,98668.34
2023-03-11T16:54:01.528Z,98665.84
2023-03-11T16:56:28.581Z,98669.53
2023-03-11T16:58:55.685Z,98672.53
2023-03-11T17:01:23.073Z,98670.81
2023-03-11T17:03:50.927Z,98667.31
2023-03-11T17:06:19.269Z,98674.13
2023-03-11T17:08:49.355Z,98673.72
2023-03-11T17:11:18.826Z,98672.47
2023-03-11T17:13:46.267Z,98678.59
2023-03-11T17:16:13.547Z,98685.44
2023-03-11T17:18:40.840Z,98689.66
2023-03-11T17:21:10.294Z,98694.19
2023-03-11T17:23:37.457Z,98713.44
2023-03-11T17:26:12.740Z,98708.94
2023-03-11T17:28:40.308Z,98715.28
2023-03-11T17:31:16.036Z,98728.94
2023-03-11T17:33:43.618Z,98722.25
2023-03-11T17:36:14.626Z,98731.84
2023-03-11T17:38:43.025Z,98732.44
2023-03-11T17:41:12.746Z,98741.94
2023-03-11T17:43:40.881Z,98746.81
2023-03-11T17:46:09.051Z,98749.63
2023-03-11T17:48:36.205Z,98757.19
2023-03-11T17:51:11.669Z,98756.72
2023-03-11T17:53:40.776Z,98751.75
2023-03-11T17:56:09.088Z,98748.75
2023-03-11T17:58:36.304Z,98761.53
2023-03-11T18:01:08.951Z,98759.66
2023-03-11T18:03:36.031Z,98767.59
2023-03-11T18:06:05.680Z,98772.41
2023-03-11T18:08:33.979Z,98779.03
2023-03-11T18:11:03.556Z,98785.25
2023-03-11T18:13:31.632Z,98787.78
2023-03-11T18:16:01.268Z,98798.94
2023-03-11T18:18:29.859Z,98793.13
2023-03-11T18:21:02.350Z,98802.91
2023-03-11T18:23:33.053Z,98810.03
2023-03-11T18:26:04.837Z,98822.94
2023-03-11T18:28:32.117Z,98823.31
2023-03-11T18:31:13.608Z,98810.53
2023-03-11T18:33:42.029Z,98823.78
2023-03-11T18:36:18.713Z,98821.25
2023-03-11T18:38:46.261Z,98798.81
2023-03-11T18:41:13.837Z,98823.06
2023-03-11T18:43:41.180Z,98826.44
2023-03-11T18:46:10.765Z,98840.66
2023-03-11T18:48:38.439Z,98848.47
2023-03-11T18:51:07.304Z,98827.84
2023-03-11T18:53:34.808Z,98858.00
2023-03-11T18:56:04.849Z,98866.69
2023-03-11T18:58:32.013Z,98863.03
2023-03-11T19:01:10.108Z,98879.38
2023-03-11T19:03:38.377Z,98886.25
2023-03-11T19:06:06.920Z,98892.16
2023-03-11T19:08:34.058Z,98893.41
2023-03-11T19:11:01.176Z,98910.50
2023-03-11T19:13:40.732Z,98912.09
2023-03-11T19:16:13.855Z,98905.16
2023-03-11T19:18:41.778Z,98925.84
2023-03-11T19:21:12.108Z,98921.03
2023-03-11T19:23:39.628Z,98938.06
2023-03-11T19:26:07.440Z,98943.75
2023-03-11T19:28:35.211Z,98934.03
2023-03-11T19:31:02.394Z,98935.78
2023-03-11T19:33:29.969Z,98943.63
2023-03-11T19:36:02.700Z,98946.28
2023-03-11T19:38:30.167Z,98942.31
2023-03-11T19:41:04.875Z,98950.56
2023-03-11T19:43:32.534Z,98967.78
2023-03-11T19:46:00.206Z,98969.91
2023-03-11T19:48:27.709Z,98973.34
2023-03-11T19:50:54.823Z,98992.47
2023-03-11T19:53:23.024Z,98984.75
2023-03-11T19:55:52.531Z,99002.59
2023-03-11T19:58:20.398Z,99011.06
2023-03-11T20:00:47.872Z,99004.88
2023-03-11T20:03:16.139Z,99014.91
2023-03-11T20:05:46.096Z,99024.09
2023-03-11T20:08:17.881Z,99032.00
2023-03-11T20:10:47.779Z,99035.63
2023-03-11T20:13:17.098Z,99004.94
2023-03-11T20:15:44.426Z,99034.06
2023-03-11T20:18:11.656Z,99026.94
2023-03-11T20:20:39.961Z,99039.31
2023-03-11T20:23:07.180Z,99044.56
2023-03-11T20:25:35.090Z,99055.66
2023-03-11T20:28:02.280Z,99044.09
2023-03-11T20:30:29.735Z,99063.81
2023-03-11T20:32:56.990Z,99081.47
2023-03-11T20:35:24.569Z,99093.16
2023-03-11T20:37:51.682Z,99088.53
2023-03-11T20:40:19.441Z,99089.56
2023-03-11T20:42:49.129Z,99103.72
2023-03-11T20:45:21.943Z,99095.84
2023-03-11T20:47:50.783Z,99093.78
2023-03-11T20:50:18.066Z,99103.66
2023-03-11T20:52:45.194Z,99115.22
2023-03-11T20:55:12.749Z,99112.41
2023-03-11T20:57:40.094Z,99106.59
2023-03-11T21:00:11.524Z,99127.00
2023-03-11T21:02:40.629Z,99114.63
2023-03-11T21:05:09.516Z,99115.00
2023-03-11T21:07:36.735Z,99119.19
2023-03-11T21:10:06.259Z,99125.31
2023-03-11T21:12:33.448Z,99123.53
2023-03-11T21:15:00.723Z,99136.53
2023-03-11T21:17:27.900Z,99130.50
2023-03-11T21:19:55.102Z,99137.84
2023-03-11T21:22:22.173Z,99129.06
2023-03-11T21:24:53.717Z,99149.16
2023-03-11T21:27:26.504Z,99143.03
2023-03-11T21:29:57.629Z,99137.78
2023-03-11T21:32:26.649Z,99154.78
2023-03-11T21:34:58.218Z,99175.66
2023-03-11T21:37:26.645Z,99165.28
2023-03-11T21:39:54.243Z,99161.22
2023-03-11T21:42:21.982Z,99164.75
2023-03-11T21:44:49.377Z,99157.78
2023-03-11T21:47:16.608Z,99178.91
2023-03-11T21:49:43.750Z,99170.31
2023-03-11T21:52:10.938Z,99158.47
2023-03-11T21:54:38.029Z,99183.59
2023-03-11T21:57:05.330Z,99159.28
2023-03-11T21:59:32.623Z,99201.41
2023-03-11T22:02:03.302Z,99202.44
2023-03-11T22:04:31.958Z,99185.72
2023-03-11T22:06:59.395Z,99208.69
2023-03-11T22:09:26.721Z,99210.47
2023-03-11T22:11:56.345Z,99216.81
2023-03-11T22:14:24.232Z,99225.66
2023-03-11T22:16:51.967Z,99217.81
2023-03-11T22:19:19.545Z,99220.31
2023-03-11T22:21:48.543Z,99250.84
2023-03-11T22:24:16.131Z,99237.88
2023-03-11T22:26:43.176Z,99249.25
2023-03-11T22:29:13.047Z,99258.84
2023-03-11T22:31:40.676Z,99263.19
2023-03-11T22:34:07.811Z,99272.94
2023-03-11T22:36:34.852Z,99282.31
2023-03-11T22:39:04.475Z,99286.72
2023-03-11T22:41:32.493Z,99282.53
2023-03-11T22:43:59.719Z,99309.69
2023-03-11T22:46:26.985Z,99301.09
2023-03-11T22:48:54.268Z,99311.53
2023-03-11T22:51:21.572Z,99323.69
2023-03-11T22:53:49.034Z,99324.84
2023-03-11T22:56:17.727Z,99331.66
2023-03-11T22:58:45.204Z,99328.28
2023-03-11T23:01:13.338Z,99331.88
2023-03-11T23:03:40.562Z,99338.03
2023-03-11T23:06:09.666Z,99343.28
2023-03-11T23:08:37.476Z,99337.97
2023-03-11T23:11:07.285Z,99351.00
2023-03-11T23:13:37.749Z,99350.44
2023-03-11T23:16:14.478Z,99350.25
2023-03-11T23:18:42.640Z,99363.41
2023-03-11T23:21:26.496Z,99367.75
2023-03-11T23:23:54.708Z,99366.13
2023-03-11T23:26:22.633Z,99348.69
2023-03-11T23:28:53.922Z,99381.88
2023-03-11T23:31:23.724Z,99374.09
2023-03-11T23:33:51.626Z,99374.19
2023-03-11T23:36:21.209Z,99384.66
2023-03-11T23:38:50.999Z,99390.81
2023-03-11T23:41:20.368Z,99368.16
2023-03-11T23:43:47.851Z,99384.78
2023-03-11T23:46:15.762Z,99376.69
2023-03-11T23:48:42.938Z,99402.16
2023-03-11T23:51:10.127Z,99407.41
2023-03-11T23:53:38.365Z,99385.50
2023-03-11T23:56:13.817Z,99399.59
2023-03-11T23:58:40.864Z,99384.00
